Time;durP1;ratioP1;P1;durP2;ratioP2;P2;SDS_P1;SDS_P2;PMS_P1;PMS_P2;Temp;Humidity;BMP_temperature;BMP_pressure;BME280_temperature;BME280_humidity;BME280_pressure;Samples;Min_cycle;Max_cycle;Signal;HPM_P1;HPM_P2
2021/12/16 00:09:18;;;;;;;41.95;14.50;;;4.10;99.90;;;;;;5003891;28;20088;-67
2021/12/16 00:35:59;;;;;;;44.35;16.13;;;4.00;99.90;;;;;;4991112;28;20046;-67
2021/12/16 00:38:25;;;;;;;46.10;15.88;;;4.00;99.90;;;;;;5007144;28;20041;-67
2021/12/16 00:40:51;;;;;;;47.53;16.60;;;3.90;99.90;;;;;;4995606;28;20561;-68
2021/12/16 00:43:23;;;;;;;42.42;15.20;;;3.90;99.90;;;;;;5010999;28;20483;-72
2021/12/16 00:46:14;;;;;;;43.63;15.40;;;4.00;99.90;;;;;;5009814;28;20477;-67
2021/12/16 00:54:11;;;;;;;46.63;15.50;;;3.90;99.90;;;;;;5011079;28;20537;-66
2021/12/16 00:56:52;;;;;;;45.22;15.20;;;3.90;99.90;;;;;;5009096;28;20034;-67
2021/12/16 00:59:20;;;;;;;52.45;17.40;;;3.90;99.90;;;;;;5010444;28;20471;-72
2021/12/16 01:02:08;;;;;;;50.42;15.85;;;3.90;99.90;;;;;;5008844;28;20072;-66
2021/12/16 01:34:33;;;;;;;44.78;14.50;;;3.90;99.90;;;;;;5009773;28;20395;-72
2021/12/16 01:42:33;;;;;;;46.05;14.60;;;3.90;99.90;;;;;;5009518;28;20455;-66
2021/12/16 01:48:13;;;;;;;41.38;13.80;;;3.80;99.90;;;;;;5008026;28;20080;-65
2021/12/16 01:50:39;;;;;;;38.80;13.25;;;3.80;99.90;;;;;;5008665;28;20087;-67
2021/12/16 01:53:53;;;;;;;49.85;14.85;;;3.80;99.90;;;;;;5008858;28;20501;-68
2021/12/16 01:56:09;;;;;;;45.75;14.10;;;3.80;99.90;;;;;;5008924;28;20050;-65
2021/12/16 01:58:35;;;;;;;51.65;13.85;;;3.80;99.90;;;;;;5008798;28;20430;-67
2021/12/16 02:01:11;;;;;;;42.28;14.55;;;3.70;99.90;;;;;;5008247;28;20058;-67
2021/12/16 02:03:51;;;;;;;43.03;13.25;;;3.70;99.90;;;;;;5008986;28;20105;-67
2021/12/16 02:08:55;;;;;;;45.65;14.40;;;3.70;99.90;;;;;;5009633;28;20040;-66
2021/12/16 02:33:17;;;;;;;37.95;12.32;;;3.60;99.90;;;;;;5007161;28;20041;-67
2021/12/16 02:35:46;;;;;;;33.17;10.88;;;3.60;99.90;;;;;;5002091;28;20048;-67
2021/12/16 02:38:16;;;;;;;35.40;11.48;;;3.60;99.90;;;;;;5009180;28;20037;-66
2021/12/16 02:40:45;;;;;;;38.23;11.50;;;3.70;99.90;;;;;;5008353;28;20120;-66
2021/12/16 02:50:59;;;;;;;33.17;10.77;;;3.60;99.90;;;;;;5009198;28;20038;-66
2021/12/16 02:53:25;;;;;;;35.00;11.73;;;3.60;99.90;;;;;;4997674;28;20435;-73
2021/12/16 02:55:51;;;;;;;34.97;10.55;;;3.50;99.90;;;;;;4993854;28;20072;-67
2021/12/16 02:58:17;;;;;;;34.15;11.32;;;3.50;99.90;;;;;;5009135;28;20034;-66
2021/12/16 03:00:47;;;;;;;38.75;11.25;;;3.40;99.90;;;;;;5007399;28;20521;-66
2021/12/16 03:03:13;;;;;;;39.38;12.50;;;3.40;99.90;;;;;;5008761;28;20030;-65
2021/12/16 03:05:39;;;;;;;39.45;11.27;;;3.40;99.90;;;;;;5007669;28;20462;-67
2021/12/16 03:08:06;;;;;;;33.75;10.98;;;3.30;99.90;;;;;;5008848;28;20403;-67
2021/12/16 03:13:33;;;;;;;40.42;12.60;;;3.30;99.90;;;;;;5009206;28;20390;-68
2021/12/16 03:21:42;;;;;;;34.95;11.18;;;3.20;99.90;;;;;;4996006;28;20449;-67
2021/12/16 03:24:33;;;;;;;35.42;11.20;;;3.30;99.90;;;;;;5007886;28;20031;-65
2021/12/16 03:35:26;;;;;;;33.65;11.30;;;3.30;99.90;;;;;;5000680;28;20064;-67
2021/12/16 03:37:32;;;;;;;38.25;11.13;;;3.20;99.90;;;;;;4995095;28;20487;-67
2021/12/16 03:40:06;;;;;;;39.22;11.63;;;3.30;99.90;;;;;;5002600;28;20079;-66
2021/12/16 03:42:41;;;;;;;42.20;11.50;;;3.30;99.90;;;;;;5006427;28;20037;-70
2021/12/16 03:46:25;;;;;;;35.88;11.90;;;3.30;99.90;;;;;;5009083;28;20033;-66
2021/12/16 03:48:22;;;;;;;35.17;11.25;;;3.30;99.90;;;;;;5006862;28;20033;-67
2021/12/16 03:50:48;;;;;;;36.42;11.45;;;3.30;99.90;;;;;;5007188;28;20684;-66
2021/12/16 03:53:16;;;;;;;31.35;10.57;;;3.30;99.90;;;;;;5008497;28;20022;-67
2021/12/16 03:55:44;;;;;;;35.63;12.18;;;3.30;99.90;;;;;;5007056;28;20099;-67
2021/12/16 03:58:10;;;;;;;36.28;11.18;;;3.30;99.90;;;;;;5006277;28;20068;-67
2021/12/16 04:00:42;;;;;;;32.80;11.18;;;3.40;99.90;;;;;;5006412;28;20062;-68
2021/12/16 04:03:08;;;;;;;38.17;10.68;;;3.30;99.90;;;;;;5001245;28;20038;-73
2021/12/16 04:05:34;;;;;;;31.10;10.40;;;3.30;99.90;;;;;;5015491;28;20462;-66
2021/12/16 04:08:00;;;;;;;31.83;10.95;;;3.30;99.90;;;;;;5009831;28;20108;-66
2021/12/16 04:10:35;;;;;;;40.22;11.65;;;3.40;99.90;;;;;;5007740;28;20113;-69
2021/12/16 04:13:04;;;;;;;30.20;10.98;;;3.40;99.90;;;;;;5011125;28;20026;-70
2021/12/16 04:15:30;;;;;;;30.38;10.30;;;3.30;99.90;;;;;;5024179;28;20083;-72
2021/12/16 04:17:56;;;;;;;29.75;10.05;;;3.30;99.90;;;;;;5030909;28;20117;-68
2021/12/16 04:20:23;;;;;;;35.67;12.07;;;3.40;99.90;;;;;;5029877;28;20545;-69
2021/12/16 04:22:49;;;;;;;39.10;12.00;;;3.40;99.90;;;;;;5030382;28;20096;-68
2021/12/16 04:25:22;;;;;;;39.20;11.82;;;3.30;99.90;;;;;;5009503;28;20038;-69
2021/12/16 04:27:50;;;;;;;34.83;11.02;;;3.30;99.90;;;;;;5025834;28;20129;-67
2021/12/16 04:30:17;;;;;;;33.22;11.35;;;3.30;99.90;;;;;;5023174;28;20121;-74
2021/12/16 04:32:43;;;;;;;30.95;10.85;;;3.30;99.90;;;;;;5027683;28;20027;-67
2021/12/16 04:35:10;;;;;;;33.45;11.75;;;3.30;99.90;;;;;;5027187;28;20040;-68
2021/12/16 04:37:36;;;;;;;32.60;11.00;;;3.30;99.90;;;;;;5030270;28;20109;-69
2021/12/16 04:40:06;;;;;;;31.45;11.00;;;3.30;99.90;;;;;;5031193;28;20030;-68
2021/12/16 04:42:32;;;;;;;;;;;3.40;99.90;;;;;;5000819;28;20023;-73
2021/12/16 04:44:58;;;;;;;33.20;10.60;;;3.30;99.90;;;;;;5010344;28;19909;-70
2021/12/16 04:47:24;;;;;;;33.42;11.05;;;3.30;99.90;;;;;;5006531;28;20030;-67
2021/12/16 04:49:50;;;;;;;33.67;10.57;;;3.30;99.90;;;;;;5010300;28;20422;-68
2021/12/16 04:52:18;;;;;;;32.83;10.82;;;3.30;99.90;;;;;;5025765;28;20057;-68
2021/12/16 04:54:44;;;;;;;30.13;10.80;;;3.30;99.90;;;;;;5028109;28;20052;-66
2021/12/16 04:57:10;;;;;;;31.92;9.80;;;3.30;99.90;;;;;;5010337;28;20080;-69
2021/12/16 04:59:37;;;;;;;33.78;10.50;;;3.30;99.90;;;;;;5005050;28;20041;-69
2021/12/16 05:02:14;;;;;;;30.58;10.82;;;3.40;99.90;;;;;;5008329;28;20360;-65
2021/12/16 05:04:41;;;;;;;32.58;10.45;;;3.30;99.90;;;;;;5008407;28;20741;-65
2021/12/16 05:07:08;;;;;;;34.63;11.10;;;3.30;99.90;;;;;;5018885;28;20022;-64
2021/12/16 05:12:19;;;;;;;30.63;11.18;;;3.30;99.90;;;;;;5000060;28;20034;-66
2021/12/16 05:14:49;;;;;;;33.78;11.23;;;3.30;99.90;;;;;;5008700;28;20037;-65
2021/12/16 05:17:29;;;;;;;26.85;7.80;;;3.30;99.90;;;;;;5010545;28;20042;-65
2021/12/16 05:19:59;;;;;;;34.33;10.70;;;3.30;99.90;;;;;;5008501;28;20323;-64
2021/12/16 05:25:19;;;;;;;30.95;10.43;;;3.40;99.90;;;;;;5010385;28;20133;-64
2021/12/16 05:27:45;;;;;;;32.47;10.00;;;3.30;99.90;;;;;;5009105;28;20086;-65
2021/12/16 05:30:11;;;;;;;31.98;10.30;;;3.40;99.90;;;;;;5027022;28;20049;-66
2021/12/16 05:32:37;;;;;;;34.33;11.00;;;3.40;99.90;;;;;;5007328;28;20202;-71
2021/12/16 05:35:03;;;;;;;28.95;10.88;;;3.40;99.90;;;;;;5010507;28;20125;-63
2021/12/16 05:37:29;;;;;;;30.05;10.98;;;3.40;99.90;;;;;;5008654;28;20478;-66
2021/12/16 05:39:55;;;;;;;30.65;11.45;;;3.30;99.90;;;;;;5007616;28;20293;-66
2021/12/16 05:42:21;;;;;;;35.83;10.75;;;3.40;99.90;;;;;;5009633;28;20483;-66
2021/12/16 05:44:47;;;;;;;33.50;11.13;;;3.40;99.90;;;;;;5009528;28;20026;-66
2021/12/16 05:47:12;;;;;;;31.58;11.05;;;3.40;99.90;;;;;;5010440;28;20022;-65
2021/12/16 05:49:38;;;;;;;37.50;11.93;;;3.30;99.90;;;;;;5009221;28;20505;-70
2021/12/16 05:52:04;;;;;;;39.13;11.75;;;3.30;99.90;;;;;;5009494;28;20021;-64
2021/12/16 05:54:30;;;;;;;30.40;10.32;;;3.40;99.90;;;;;;5008532;28;20045;-66
2021/12/16 05:56:55;;;;;;;30.45;10.55;;;3.30;99.90;;;;;;5008352;28;20037;-65
2021/12/16 05:59:22;;;;;;;30.20;11.55;;;3.40;99.90;;;;;;5015310;28;20095;-66
2021/12/16 06:01:49;;;;;;;29.42;10.30;;;3.40;99.90;;;;;;5027409;28;20456;-65
2021/12/16 06:04:15;;;;;;;28.15;10.20;;;3.40;99.90;;;;;;5026263;28;20060;-65
2021/12/16 06:06:41;;;;;;;31.35;10.35;;;3.40;99.90;;;;;;5013314;28;20030;-65
2021/12/16 06:09:08;;;;;;;30.55;10.77;;;3.40;99.90;;;;;;5019964;28;20469;-64
2021/12/16 06:11:36;;;;;;;33.00;10.57;;;3.40;99.90;;;;;;5028943;28;20033;-64
2021/12/16 06:14:39;;;;;;;28.92;10.68;;;3.40;99.90;;;;;;5015678;28;20093;-65
2021/12/16 06:28:04;;;;;;;28.83;10.38;;;3.50;99.90;;;;;;5001205;28;20064;-64
2021/12/16 06:30:33;;;;;;;29.75;11.70;;;3.50;99.90;;;;;;5009046;28;20057;-65
2021/12/16 06:33:00;;;;;;;36.08;11.82;;;3.50;99.90;;;;;;5018411;28;20017;-64
2021/12/16 06:35:26;;;;;;;31.70;10.68;;;3.50;99.90;;;;;;5028311;28;20069;-64
2021/12/16 06:37:52;;;;;;;28.27;9.63;;;3.50;99.90;;;;;;5027886;28;20540;-64
2021/12/16 06:40:19;;;;;;;31.33;10.60;;;3.50;99.90;;;;;;5009629;28;20037;-66
2021/12/16 06:42:47;;;;;;;29.70;9.73;;;3.50;99.90;;;;;;5007733;28;20026;-66
2021/12/16 06:45:19;;;;;;;30.70;10.70;;;3.50;99.90;;;;;;5007749;28;20038;-65
2021/12/16 06:47:50;;;;;;;30.27;10.18;;;3.50;99.90;;;;;;5008284;28;20032;-67
2021/12/16 06:50:38;;;;;;;31.73;11.02;;;3.50;99.90;;;;;;5009703;28;20029;-66
2021/12/16 06:53:05;;;;;;;32.97;10.55;;;3.50;99.90;;;;;;5008111;28;20053;-65
2021/12/16 06:55:41;;;;;;;30.90;10.63;;;3.30;99.90;;;;;;5008761;28;20038;-64
2021/12/16 06:58:28;;;;;;;29.48;10.60;;;3.30;99.90;;;;;;5007308;28;20032;-63
2021/12/16 07:01:06;;;;;;;30.50;10.85;;;3.40;99.90;;;;;;5025836;28;20129;-62
2021/12/16 07:03:44;;;;;;;34.05;10.80;;;3.40;99.90;;;;;;5008734;28;20025;-66
2021/12/16 07:06:12;;;;;;;35.63;10.57;;;3.40;99.90;;;;;;5008300;28;20117;-65
2021/12/16 07:08:38;;;;;;;37.55;12.48;;;3.40;99.90;;;;;;5009272;28;20088;-62
2021/12/16 07:11:04;;;;;;;36.97;11.48;;;3.40;99.90;;;;;;5008335;28;20026;-63
2021/12/16 07:13:35;;;;;;;32.65;11.32;;;3.40;99.90;;;;;;5008700;28;20030;-64
2021/12/16 07:16:01;;;;;;;33.05;10.27;;;3.50;99.90;;;;;;5006206;28;20034;-66
2021/12/16 07:18:27;;;;;;;35.10;11.65;;;3.50;99.90;;;;;;5009177;28;20038;-63
2021/12/16 07:20:53;;;;;;;43.25;14.57;;;3.50;99.90;;;;;;5007687;28;20104;-63
2021/12/16 07:23:19;;;;;;;39.10;13.60;;;3.50;99.90;;;;;;5007134;28;20387;-66
2021/12/16 07:25:45;;;;;;;32.05;11.05;;;3.50;99.90;;;;;;5000906;28;20836;-64
2021/12/16 07:28:11;;;;;;;32.15;10.80;;;3.50;99.90;;;;;;5006956;28;20573;-65
2021/12/16 07:30:40;;;;;;;30.55;10.60;;;3.60;99.90;;;;;;5014548;28;20030;-64
2021/12/16 07:33:07;;;;;;;33.85;10.32;;;3.60;99.90;;;;;;5007797;28;20125;-64
2021/12/16 07:35:34;;;;;;;31.20;11.13;;;3.60;99.90;;;;;;5006862;28;20045;-63
2021/12/16 07:38:00;;;;;;;31.50;10.07;;;3.60;99.90;;;;;;5007912;28;20022;-65
2021/12/16 07:40:27;;;;;;;32.28;10.75;;;3.60;99.90;;;;;;5009207;28;20038;-64
2021/12/16 07:43:10;;;;;;;29.30;9.82;;;3.50;99.90;;;;;;5005644;28;20026;-64
2021/12/16 07:45:40;;;;;;;32.00;10.25;;;3.50;99.90;;;;;;5007938;28;20056;-64
2021/12/16 07:48:06;;;;;;;30.83;11.00;;;3.50;99.90;;;;;;5011307;28;20022;-65
2021/12/16 07:50:32;;;;;;;33.85;11.50;;;3.50;99.90;;;;;;4978256;28;20034;-64
2021/12/16 07:52:58;;;;;;;33.85;10.98;;;3.60;99.90;;;;;;5011642;28;20030;-63
2021/12/16 07:55:24;;;;;;;32.13;10.93;;;3.60;99.90;;;;;;5011913;28;20037;-63
2021/12/16 07:57:50;;;;;;;35.88;11.65;;;3.60;99.90;;;;;;5011632;28;20526;-64
2021/12/16 08:00:22;;;;;;;33.08;11.77;;;3.60;99.90;;;;;;5012255;28;20037;-64
2021/12/16 08:02:48;;;;;;;33.80;11.27;;;3.60;99.90;;;;;;5009878;28;20030;-62
2021/12/16 08:05:15;;;;;;;32.15;10.82;;;3.50;99.90;;;;;;5012176;28;20752;-63
2021/12/16 08:07:41;;;;;;;35.22;10.55;;;3.50;99.90;;;;;;5011941;28;20038;-64
2021/12/16 08:10:11;;;;;;;32.08;10.52;;;3.50;99.90;;;;;;5011118;28;20155;-64
2021/12/16 08:12:37;;;;;;;31.15;10.00;;;3.50;99.90;;;;;;5012134;28;20036;-65
2021/12/16 08:15:05;;;;;;;31.63;10.18;;;3.50;99.90;;;;;;5011070;28;20049;-65
2021/12/16 08:17:30;;;;;;;36.20;11.05;;;3.60;99.90;;;;;;5011640;28;20041;-66
2021/12/16 08:19:56;;;;;;;31.58;10.88;;;3.60;99.90;;;;;;5009322;28;20133;-64
2021/12/16 08:22:22;;;;;;;30.70;11.25;;;3.60;99.90;;;;;;5008029;28;20034;-64
2021/12/16 08:24:48;;;;;;;31.15;10.75;;;3.60;99.90;;;;;;5011034;28;20033;-67
2021/12/16 08:27:14;;;;;;;31.88;10.73;;;3.60;99.90;;;;;;5011552;28;20046;-63
2021/12/16 08:29:42;;;;;;;31.65;10.60;;;3.60;99.90;;;;;;5010686;28;20034;-63
2021/12/16 08:32:08;;;;;;;32.35;10.68;;;3.60;99.90;;;;;;5010932;28;20054;-64
2021/12/16 08:34:37;;;;;;;30.38;10.15;;;3.60;99.90;;;;;;5011889;28;20148;-64
2021/12/16 08:37:04;;;;;;;32.60;10.82;;;3.60;99.90;;;;;;5010039;28;20022;-65
2021/12/16 08:39:30;;;;;;;31.00;10.35;;;3.60;99.90;;;;;;5011225;28;20434;-65
2021/12/16 08:41:59;;;;;;;37.28;10.75;;;3.70;99.90;;;;;;5010875;28;20029;-66
2021/12/16 08:44:25;;;;;;;33.38;11.43;;;3.70;99.90;;;;;;5010892;28;20109;-65
2021/12/16 08:46:56;;;;;;;32.80;11.15;;;3.70;99.90;;;;;;5010602;28;20033;-67
2021/12/16 08:49:21;;;;;;;31.60;10.85;;;3.80;99.90;;;;;;5015901;28;20478;-72
2021/12/16 08:51:53;;;;;;;32.25;11.70;;;3.70;99.90;;;;;;5017659;28;20040;-76
2021/12/16 08:54:19;;;;;;;33.55;11.10;;;3.70;99.90;;;;;;5010838;28;20064;-71
2021/12/16 08:56:47;;;;;;;33.50;11.20;;;3.70;99.90;;;;;;5010211;28;20471;-75
2021/12/16 08:59:13;;;;;;;31.20;10.90;;;3.80;99.90;;;;;;5016666;28;20038;-70
2021/12/16 09:01:43;;;;;;;32.45;10.88;;;3.90;99.90;;;;;;5020300;28;20034;-70
2021/12/16 09:04:10;;;;;;;35.70;11.50;;;3.90;99.90;;;;;;5009128;28;20058;-71
2021/12/16 09:06:36;;;;;;;33.22;10.82;;;3.90;99.90;;;;;;5009343;28;20499;-71
2021/12/16 09:09:05;;;;;;;33.05;10.25;;;3.90;99.90;;;;;;5009076;28;20459;-71
2021/12/16 09:11:36;;;;;;;30.35;10.20;;;3.90;99.90;;;;;;5028836;28;20116;-71
2021/12/16 09:14:02;;;;;;;34.70;11.05;;;4.00;99.90;;;;;;5020216;28;20033;-70
2021/12/16 09:16:31;;;;;;;28.38;9.80;;;4.00;99.90;;;;;;5030227;28;20707;-71
2021/12/16 09:18:57;;;;;;;28.85;10.13;;;3.90;99.90;;;;;;5020388;28;20032;-70
2021/12/16 09:21:27;;;;;;;29.08;9.45;;;3.90;99.90;;;;;;5009267;28;20030;-70
2021/12/16 09:23:55;;;;;;;31.90;10.95;;;3.90;99.90;;;;;;5009667;28;20030;-71
2021/12/16 09:26:22;;;;;;;30.25;10.40;;;3.90;99.90;;;;;;5016398;28;20029;-71
2021/12/16 09:28:48;;;;;;;32.22;10.85;;;4.00;99.90;;;;;;5016795;28;20374;-76
2021/12/16 09:31:17;;;;;;;28.63;10.65;;;4.00;99.90;;;;;;5012907;28;20029;-70
2021/12/16 09:33:48;;;;;;;28.02;10.38;;;4.00;99.90;;;;;;5001537;28;20025;-70
2021/12/16 09:36:16;;;;;;;32.75;10.18;;;3.90;99.90;;;;;;5007257;28;20044;-71
2021/12/16 09:38:43;;;;;;;29.23;10.38;;;4.00;99.90;;;;;;5001421;28;20034;-70
2021/12/16 09:41:09;;;;;;;30.73;10.52;;;4.10;99.90;;;;;;4996650;28;20046;-72
2021/12/16 09:43:39;;;;;;;33.22;11.57;;;4.10;99.90;;;;;;5004871;28;20033;-72
2021/12/16 09:46:10;;;;;;;32.45;10.65;;;4.10;99.90;;;;;;4995038;28;20038;-71
2021/12/16 09:48:36;;;;;;;33.75;11.73;;;4.10;99.90;;;;;;4999650;28;20080;-71
2021/12/16 09:51:06;;;;;;;31.67;10.45;;;4.20;99.90;;;;;;5022164;28;20478;-71
2021/12/16 09:53:35;;;;;;;31.02;10.40;;;4.20;99.90;;;;;;5029553;28;20022;-70
2021/12/16 09:56:02;;;;;;;32.65;10.50;;;4.20;99.90;;;;;;5025482;28;20497;-72
2021/12/16 09:58:34;;;;;;;31.58;10.27;;;4.20;99.90;;;;;;5027027;28;20045;-70
2021/12/16 10:01:01;;;;;;;33.15;11.55;;;4.20;99.90;;;;;;5023200;28;20044;-72
2021/12/16 10:03:28;;;;;;;32.05;10.63;;;4.20;99.90;;;;;;5026163;28;20068;-71
2021/12/16 10:05:54;;;;;;;30.38;10.98;;;4.20;99.90;;;;;;5005217;28;20064;-74
2021/12/16 10:08:20;;;;;;;29.48;10.32;;;4.10;99.90;;;;;;5009968;28;20030;-70
2021/12/16 10:10:46;;;;;;;30.33;10.50;;;4.10;99.90;;;;;;5009011;28;20394;-70
2021/12/16 10:13:19;;;;;;;32.58;10.43;;;4.10;99.90;;;;;;5008875;28;20064;-70
2021/12/16 10:18:17;;;;;;;34.17;11.95;;;4.10;99.90;;;;;;5008713;28;20054;-71
2021/12/16 10:20:56;;;;;;;33.28;11.90;;;4.20;99.90;;;;;;5009530;28;20025;-72
2021/12/16 10:23:37;;;;;;;29.63;10.93;;;4.10;99.90;;;;;;5006362;28;20041;-71
2021/12/16 10:26:16;;;;;;;32.13;10.88;;;4.10;99.90;;;;;;5008326;28;20030;-71
2021/12/16 10:28:46;;;;;;;27.67;10.35;;;4.20;99.90;;;;;;5006059;28;20038;-71
2021/12/16 10:31:16;;;;;;;31.13;10.32;;;4.10;99.90;;;;;;5008915;28;20053;-71
2021/12/16 10:33:42;;;;;;;31.45;10.57;;;4.20;99.90;;;;;;5009477;28;20025;-72
2021/12/16 10:36:24;;;;;;;33.83;10.98;;;4.30;99.90;;;;;;5008656;28;20455;-69
2021/12/16 10:38:59;;;;;;;29.90;10.85;;;4.20;99.90;;;;;;5008642;28;20030;-69
2021/12/16 10:41:26;;;;;;;29.58;10.25;;;4.30;99.90;;;;;;5009025;28;20052;-70
2021/12/16 10:44:17;;;;;;;29.65;10.60;;;4.30;99.90;;;;;;5008581;28;20046;-74
2021/12/16 10:47:13;;;;;;;30.83;11.18;;;4.40;99.90;;;;;;5004840;28;20648;-69
2021/12/16 10:49:49;;;;;;;33.47;11.45;;;4.40;99.90;;;;;;5005006;28;20042;-68
2021/12/16 10:52:26;;;;;;;35.17;11.43;;;4.40;99.90;;;;;;5008025;28;20049;-69
2021/12/16 10:54:54;;;;;;;30.80;11.18;;;4.40;99.90;;;;;;5009040;28;20038;-75
2021/12/16 10:57:22;;;;;;;30.15;10.57;;;4.30;99.90;;;;;;5008498;28;20063;-69
2021/12/16 10:59:52;;;;;;;31.10;10.32;;;4.30;99.90;;;;;;5012410;28;20030;-69
2021/12/16 11:02:25;;;;;;;34.85;12.10;;;4.30;99.90;;;;;;5008162;28;20030;-70
2021/12/16 11:05:00;;;;;;;34.80;11.68;;;4.30;99.90;;;;;;5003778;28;20116;-70
2021/12/16 11:07:38;;;;;;;31.90;11.60;;;4.30;99.90;;;;;;4989585;28;20054;-72
2021/12/16 11:10:10;;;;;;;33.30;11.20;;;4.30;99.90;;;;;;4988836;28;20113;-69
2021/12/16 11:12:41;;;;;;;33.22;12.45;;;4.40;99.90;;;;;;5002632;28;20053;-73
2021/12/16 11:15:13;;;;;;;38.58;12.50;;;4.40;99.90;;;;;;5006649;28;20037;-70
2021/12/16 11:17:52;;;;;;;35.10;11.43;;;4.50;99.90;;;;;;5008760;28;20034;-73
2021/12/16 11:20:26;;;;;;;30.85;11.23;;;4.50;99.90;;;;;;5008855;28;20034;-69
2021/12/16 11:23:05;;;;;;;37.72;12.75;;;4.60;99.90;;;;;;5012441;28;20122;-71
2021/12/16 11:25:36;;;;;;;31.20;10.85;;;4.60;99.90;;;;;;5013391;28;20036;-72
2021/12/16 11:28:31;;;;;;;32.40;11.70;;;4.60;99.90;;;;;;5011715;28;20573;-69
2021/12/16 11:31:03;;;;;;;34.63;11.65;;;4.60;99.90;;;;;;5013277;28;20386;-75
2021/12/16 11:33:39;;;;;;;34.30;11.77;;;4.70;99.90;;;;;;4998484;28;20014;-70
2021/12/16 11:36:33;;;;;;;33.38;12.00;;;4.70;99.90;;;;;;5010425;28;20042;-70
2021/12/16 11:39:13;;;;;;;31.67;11.60;;;4.70;99.90;;;;;;5006916;28;20145;-74
2021/12/16 11:41:43;;;;;;;31.00;11.82;;;4.70;99.90;;;;;;5012648;28;20025;-68
2021/12/16 11:44:20;;;;;;;30.77;11.55;;;4.60;99.90;;;;;;5011227;28;20053;-70
2021/12/16 11:46:51;;;;;;;36.63;11.98;;;4.60;99.90;;;;;;5016923;28;20479;-70
2021/12/16 11:49:29;;;;;;;31.10;10.98;;;4.70;99.90;;;;;;5011376;28;20022;-70
2021/12/16 11:51:57;;;;;;;28.42;10.52;;;4.70;99.90;;;;;;5007880;28;20038;-70
2021/12/16 11:54:28;;;;;;;30.92;11.45;;;4.60;99.90;;;;;;5001382;28;20046;-68
2021/12/16 11:57:21;;;;;;;32.08;11.65;;;4.60;99.90;;;;;;5012057;28;20030;-68
2021/12/16 12:00:01;;;;;;;25.88;10.57;;;4.60;99.90;;;;;;5003759;28;20385;-69
2021/12/16 12:02:32;;;;;;;32.47;11.57;;;4.60;99.90;;;;;;5002501;28;20406;-71
2021/12/16 12:05:17;;;;;;;32.88;11.45;;;4.60;99.90;;;;;;4999472;28;20026;-74
2021/12/16 12:07:49;;;;;;;30.02;11.57;;;4.70;99.90;;;;;;5001835;28;20114;-68
2021/12/16 12:10:23;;;;;;;30.52;11.35;;;4.70;99.90;;;;;;5010166;28;20037;-69
2021/12/16 12:12:50;;;;;;;30.17;12.02;;;4.70;99.90;;;;;;5011184;28;20437;-69
2021/12/16 12:15:18;;;;;;;36.00;12.25;;;4.70;99.90;;;;;;4996578;28;20234;-70
2021/12/16 12:17:55;;;;;;;32.47;11.63;;;4.80;99.90;;;;;;4994656;28;20027;-69
2021/12/16 12:20:29;;;;;;;31.10;12.43;;;4.80;99.90;;;;;;5009969;28;20217;-69
2021/12/16 12:22:56;;;;;;;34.08;12.25;;;4.80;99.90;;;;;;5011496;28;20029;-70
2021/12/16 12:25:22;;;;;;;34.35;12.63;;;4.80;99.90;;;;;;5016425;28;20457;-70
2021/12/16 12:27:48;;;;;;;32.55;12.30;;;4.80;99.90;;;;;;5002752;28;20080;-69
2021/12/16 12:30:14;;;;;;;34.10;12.43;;;4.80;99.90;;;;;;5029630;28;20025;-69
2021/12/16 12:32:44;;;;;;;36.45;12.68;;;4.90;99.90;;;;;;5030721;28;20053;-67
2021/12/16 12:35:14;;;;;;;32.40;12.73;;;5.00;99.90;;;;;;5008943;28;20040;-73
2021/12/16 12:37:47;;;;;;;30.05;11.90;;;4.90;99.90;;;;;;5015065;28;20093;-68
2021/12/16 12:40:31;;;;;;;37.45;12.05;;;4.90;99.90;;;;;;5008373;28;20088;-68
2021/12/16 12:42:58;;;;;;;31.65;12.07;;;4.80;99.90;;;;;;5009601;28;20030;-67
2021/12/16 12:45:31;;;;;;;37.83;13.10;;;4.70;99.90;;;;;;5017243;28;20033;-66
2021/12/16 12:47:59;;;;;;;35.38;12.32;;;4.80;99.90;;;;;;5018173;28;20134;-71
2021/12/16 12:50:33;;;;;;;31.88;11.57;;;4.80;99.90;;;;;;5009835;28;20498;-67
2021/12/16 12:53:15;;;;;;;33.30;12.43;;;4.90;99.90;;;;;;5011392;28;20118;-68
2021/12/16 12:55:42;;;;;;;36.03;12.43;;;4.90;99.90;;;;;;4992016;28;20128;-69
2021/12/16 12:58:17;;;;;;;35.40;13.32;;;5.00;99.90;;;;;;4996763;28;20030;-68
2021/12/16 13:00:59;;;;;;;34.38;12.15;;;5.00;99.90;;;;;;5016036;28;20072;-66
2021/12/16 13:03:33;;;;;;;35.47;12.88;;;5.00;99.90;;;;;;5017391;28;20030;-68
2021/12/16 13:06:06;;;;;;;33.35;12.52;;;5.00;99.90;;;;;;5010961;28;20084;-70
2021/12/16 13:08:41;;;;;;;36.00;12.40;;;5.10;99.90;;;;;;5010638;28;20436;-68
2021/12/16 13:11:13;;;;;;;29.52;12.30;;;5.10;99.90;;;;;;5010897;28;20398;-69
2021/12/16 13:13:56;;;;;;;30.65;12.38;;;5.20;99.90;;;;;;5009471;28;20033;-69
2021/12/16 13:25:35;;;;;;;29.95;11.45;;;5.40;99.90;;;;;;5030665;28;20044;-64
2021/12/16 13:27:47;;;;;;;31.20;12.02;;;5.30;99.90;;;;;;5010107;28;20057;-67
2021/12/16 13:30:26;;;;;;;28.17;11.68;;;5.50;99.90;;;;;;5029036;28;20021;-67
2021/12/16 13:33:25;;;;;;;29.38;11.77;;;5.40;99.90;;;;;;5007346;28;20021;-64
2021/12/16 13:36:03;;;;;;;31.00;11.50;;;5.40;99.90;;;;;;4991523;28;20448;-64
2021/12/16 13:38:45;;;;;;;29.30;11.30;;;5.50;99.90;;;;;;5009321;28;20026;-62
2021/12/16 13:41:18;;;;;;;29.30;10.65;;;5.50;99.90;;;;;;5007773;28;20044;-65
2021/12/16 13:44:10;;;;;;;25.95;10.70;;;5.60;99.90;;;;;;5009896;28;20394;-63
2021/12/16 13:46:57;;;;;;;26.08;10.07;;;5.70;99.90;;;;;;5009700;28;20052;-64
2021/12/16 13:58:21;;;;;;;27.90;11.27;;;5.70;99.90;;;;;;5000995;28;20059;-65
2021/12/16 14:03:48;;;;;;;26.88;10.38;;;5.70;99.90;;;;;;5008796;28;20056;-72
2021/12/16 14:08:48;;;;;;;27.73;10.63;;;5.60;99.90;;;;;;5009914;28;20034;-68
2021/12/16 14:23:46;;;;;;;25.27;10.43;;;5.40;99.90;;;;;;5009308;28;20437;-65
2021/12/16 14:26:31;;;;;;;27.70;11.07;;;5.50;99.90;;;;;;5008088;28;20038;-66
2021/12/16 14:37:16;;;;;;;32.55;13.15;;;5.50;99.90;;;;;;5009970;28;20467;-66
2021/12/16 14:48:38;;;;;;;;;;;5.30;99.90;;;;;;5009304;28;20092;-66
2021/12/16 14:51:10;;;;;;;31.60;11.43;;;5.40;99.90;;;;;;5010131;28;19991;-67
2021/12/16 14:53:38;;;;;;;28.40;11.45;;;5.30;99.90;;;;;;5005319;28;20076;-66
2021/12/16 14:56:12;;;;;;;26.98;11.82;;;5.30;99.90;;;;;;5007305;28;20045;-64
2021/12/16 14:58:40;;;;;;;27.50;11.23;;;5.40;99.90;;;;;;5007566;28;20026;-64
2021/12/16 15:01:09;;;;;;;30.65;12.18;;;5.40;99.90;;;;;;5008143;28;20030;-64
2021/12/16 15:03:39;;;;;;;31.17;12.45;;;5.40;99.90;;;;;;5006004;28;20033;-65
2021/12/16 15:06:17;;;;;;;32.40;12.27;;;5.40;99.90;;;;;;5007818;28;20034;-63
2021/12/16 15:09:12;;;;;;;28.08;11.65;;;5.40;99.90;;;;;;5004979;28;20105;-66
2021/12/16 15:11:44;;;;;;;32.67;11.80;;;5.40;99.90;;;;;;5000588;28;20137;-68
2021/12/16 15:14:31;;;;;;;25.80;10.82;;;5.40;99.90;;;;;;5007048;28;20053;-68
2021/12/16 15:44:56;;;;;;;;;;;5.30;99.90;;;;;;5009044;28;20080;-68
2021/12/16 15:47:23;;;;;;;31.75;11.68;;;5.20;99.90;;;;;;5039228;28;20400;-66
2021/12/16 15:49:49;;;;;;;31.58;12.82;;;5.20;99.90;;;;;;5008701;28;20034;-66
2021/12/16 15:52:16;;;;;;;34.88;14.80;;;5.20;99.90;;;;;;5007875;28;20612;-67
2021/12/16 15:54:47;;;;;;;39.67;15.18;;;5.20;99.90;;;;;;5008751;28;20468;-68
2021/12/16 15:57:15;;;;;;;46.90;17.30;;;5.20;99.90;;;;;;5008274;28;20087;-71
2021/12/16 15:59:44;;;;;;;39.25;14.02;;;5.20;99.90;;;;;;5005479;28;20753;-67
2021/12/16 16:02:11;;;;;;;36.30;13.50;;;5.10;99.90;;;;;;5008821;28;20064;-68
2021/12/16 16:04:38;;;;;;;31.92;13.18;;;5.10;99.90;;;;;;5008141;28;20485;-68
2021/12/16 16:07:07;;;;;;;34.67;14.18;;;5.10;99.90;;;;;;5010062;28;20041;-67
2021/12/16 16:09:42;;;;;;;40.78;14.82;;;5.10;99.90;;;;;;5010732;28;20030;-67
2021/12/16 16:12:15;;;;;;;42.03;15.57;;;5.10;99.90;;;;;;5010945;28;20080;-67
2021/12/16 16:14:44;;;;;;;39.63;15.82;;;5.10;99.90;;;;;;5011287;28;20045;-68
2021/12/16 16:17:15;;;;;;;246.60;65.97;;;5.00;99.90;;;;;;5010010;28;20030;-68
2021/12/16 16:19:42;;;;;;;63.25;24.45;;;5.00;99.90;;;;;;5012047;28;20029;-67
2021/12/16 16:22:09;;;;;;;60.08;19.92;;;4.90;99.90;;;;;;5012178;28;20040;-66
2021/12/16 16:24:39;;;;;;;44.47;16.60;;;4.90;99.90;;;;;;5011087;28;20612;-67
2021/12/16 16:27:09;;;;;;;39.20;14.60;;;4.90;99.90;;;;;;5011825;28;20132;-67
2021/12/16 16:29:36;;;;;;;;;;;4.90;99.90;;;;;;5009310;28;20045;-68
2021/12/16 16:32:03;;;;;;;32.45;12.52;;;4.80;99.90;;;;;;5011621;28;19918;-68
2021/12/16 16:34:43;;;;;;;35.42;13.38;;;4.80;99.90;;;;;;5011313;28;20026;-67
2021/12/16 16:37:10;;;;;;;43.58;15.98;;;4.80;99.90;;;;;;5010372;28;20359;-68
2021/12/16 16:39:48;;;;;;;38.03;13.70;;;4.80;99.90;;;;;;5009887;28;20801;-67
2021/12/16 16:42:15;;;;;;;37.38;14.00;;;4.80;99.90;;;;;;5010170;28;20164;-71